createdAt,value
2023-08-30T00:01:14.868Z,12.30
2023-08-30T00:08:37.160Z,13.30
2023-08-30T00:13:33.499Z,12.10
2023-08-30T00:16:01.283Z,12.20
2023-08-30T00:18:28.227Z,12.50
2023-08-30T00:20:55.090Z,13.30
2023-08-30T00:23:21.966Z,12.80
2023-08-30T00:25:49.821Z,14.50
2023-08-30T00:28:16.863Z,13.10
2023-08-30T00:30:43.734Z,13.30
2023-08-30T00:33:10.705Z,14.50
2023-08-30T00:35:37.619Z,13.20
2023-08-30T00:38:04.623Z,12.90
2023-08-30T00:40:39.782Z,13.90
2023-08-30T00:43:08.459Z,13.20
2023-08-30T00:45:38.345Z,13.30
2023-08-30T00:48:05.786Z,13.20
2023-08-30T00:50:32.907Z,12.60
2023-08-30T00:52:59.795Z,13.30
2023-08-30T00:55:26.657Z,12.90
2023-08-30T00:57:53.858Z,13.50
2023-08-30T01:00:21.064Z,14.70
2023-08-30T01:02:48.125Z,14.90
2023-08-30T01:05:15.572Z,13.80
2023-08-30T01:07:43.815Z,13.10
2023-08-30T01:10:11.690Z,13.60
2023-08-30T01:12:43.930Z,13.80
2023-08-30T01:15:16.527Z,13.90
2023-08-30T01:17:45.347Z,14.20
2023-08-30T01:20:18.366Z,12.70
2023-08-30T01:23:22.170Z,14.00
2023-08-30T01:26:10.518Z,14.00
2023-08-30T01:28:38.988Z,14.00
2023-08-30T01:31:08.912Z,13.90
2023-08-30T01:33:37.414Z,13.70
2023-08-30T01:36:05.695Z,14.60
2023-08-30T01:38:35.024Z,14.00
2023-08-30T01:41:03.681Z,13.60
2023-08-30T01:43:32.946Z,14.10
2023-08-30T01:46:01.952Z,14.00
2023-08-30T01:48:30.628Z,14.10
2023-08-30T01:51:01.362Z,14.10
2023-08-30T01:53:29.862Z,14.10
2023-08-30T01:55:56.915Z,14.00
2023-08-30T01:58:23.954Z,14.40
2023-08-30T02:00:50.852Z,14.70
2023-08-30T02:03:17.784Z,14.60
2023-08-30T02:06:00.119Z,14.30
2023-08-30T02:08:36.779Z,14.10
2023-08-30T02:11:15.830Z,14.50
2023-08-30T02:13:43.770Z,14.50
2023-08-30T02:16:11.156Z,14.20
2023-08-30T02:18:39.179Z,14.80
2023-08-30T02:21:06.997Z,14.90
2023-08-30T02:23:34.102Z,14.30
2023-08-30T02:26:01.153Z,14.20
2023-08-30T02:28:28.113Z,14.20
2023-08-30T02:30:55.734Z,14.20
2023-08-30T02:33:22.878Z,13.10
2023-08-30T02:35:49.932Z,14.50
2023-08-30T02:38:16.884Z,14.90
2023-08-30T02:40:43.964Z,14.30
2023-08-30T02:43:11.540Z,14.20
2023-08-30T02:45:38.529Z,14.00
2023-08-30T02:48:06.074Z,14.60
2023-08-30T02:50:33.006Z,14.20
2023-08-30T02:52:59.869Z,14.10
2023-08-30T02:55:26.809Z,14.20
2023-08-30T02:57:53.908Z,14.60
2023-08-30T03:00:20.961Z,14.80
2023-08-30T03:02:50.560Z,15.30
2023-08-30T03:05:18.247Z,14.10
2023-08-30T03:07:45.504Z,14.50
2023-08-30T03:10:13.471Z,12.90
2023-08-30T03:12:40.452Z,14.80
2023-08-30T03:15:08.033Z,15.00
2023-08-30T03:17:36.263Z,13.30
2023-08-30T03:20:04.823Z,13.90
2023-08-30T03:22:34.694Z,14.90
2023-08-30T03:25:04.751Z,14.10
2023-08-30T03:27:33.369Z,14.30
2023-08-30T03:30:04.575Z,12.30
2023-08-30T03:32:33.904Z,13.10
2023-08-30T03:35:01.219Z,12.20
2023-08-30T03:37:28.230Z,13.80
2023-08-30T03:39:56.150Z,14.70
2023-08-30T03:42:23.957Z,14.60
2023-08-30T03:44:50.956Z,13.60
2023-08-30T03:47:17.866Z,14.50
2023-08-30T03:49:45.470Z,12.30
2023-08-30T03:52:14.577Z,13.40
2023-08-30T03:54:41.695Z,13.00
2023-08-30T03:57:08.836Z,13.40
2023-08-30T03:59:35.725Z,14.40
2023-08-30T04:02:02.751Z,13.20
2023-08-30T04:04:29.812Z,11.70
2023-08-30T04:06:56.781Z,13.70
2023-08-30T04:09:23.648Z,11.90
2023-08-30T04:11:50.563Z,13.40
2023-08-30T04:14:17.435Z,13.10
2023-08-30T04:19:11.701Z,13.50
2023-08-30T04:24:06.554Z,12.90
2023-08-30T04:26:34.104Z,10.80
2023-08-30T04:29:01.420Z,12.80
2023-08-30T04:31:28.428Z,13.30
2023-08-30T04:33:56.379Z,13.60
2023-08-30T04:36:23.668Z,12.90
2023-08-30T04:39:01.764Z,14.30
2023-08-30T04:41:30.700Z,13.80
2023-08-30T04:43:57.579Z,12.60
2023-08-30T04:46:24.593Z,12.70
2023-08-30T04:48:52.864Z,13.00
2023-08-30T04:51:19.740Z,13.70
2023-08-30T04:53:46.697Z,12.50
2023-08-30T04:56:14.671Z,12.90
2023-08-30T04:58:41.796Z,11.40
2023-08-30T05:01:12.362Z,13.00
2023-08-30T05:03:41.438Z,12.90
2023-08-30T05:06:11.123Z,12.50
2023-08-30T05:08:38.185Z,12.00
2023-08-30T05:11:06.824Z,12.70
2023-08-30T05:13:36.062Z,13.30
2023-08-30T05:16:02.977Z,14.00
2023-08-30T05:18:29.972Z,12.60
2023-08-30T05:20:56.934Z,12.90
2023-08-30T05:23:23.893Z,12.10
2023-08-30T05:25:50.964Z,11.60
2023-08-30T05:28:18.911Z,12.80
2023-08-30T05:30:46.052Z,13.10
2023-08-30T05:33:31.651Z,13.00
2023-08-30T05:36:23.293Z,13.50
2023-08-30T05:38:57.250Z,13.10
2023-08-30T05:41:34.925Z,12.80
2023-08-30T05:44:01.840Z,13.20
2023-08-30T05:46:29.247Z,13.20
2023-08-30T05:48:56.214Z,13.70
2023-08-30T05:51:24.188Z,13.20
2023-08-30T05:53:51.550Z,13.60
2023-08-30T05:56:18.505Z,13.60
2023-08-30T05:58:45.733Z,13.00
2023-08-30T06:01:12.895Z,12.40
2023-08-30T06:03:40.024Z,13.90
2023-08-30T06:06:07.166Z,13.80
2023-08-30T06:08:34.175Z,14.30
2023-08-30T06:11:01.206Z,14.30
2023-08-30T06:13:28.143Z,13.00
2023-08-30T06:15:55.193Z,13.90
2023-08-30T06:18:22.337Z,13.90
2023-08-30T06:20:50.154Z,12.70
2023-08-30T06:23:21.311Z,13.80
2023-08-30T06:25:58.272Z,13.90
2023-08-30T06:28:25.935Z,13.90
2023-08-30T06:30:52.935Z,14.00
2023-08-30T06:33:19.933Z,14.30
2023-08-30T06:35:50.501Z,13.80
2023-08-30T06:38:17.822Z,13.90
2023-08-30T06:40:46.183Z,13.80
2023-08-30T06:43:14.067Z,14.10
2023-08-30T06:45:42.605Z,13.70
2023-08-30T06:48:09.881Z,13.70
2023-08-30T06:53:04.896Z,13.60
2023-08-30T06:55:33.282Z,13.90
2023-08-30T06:58:00.529Z,14.00
2023-08-30T07:00:27.582Z,13.60
2023-08-30T07:02:54.648Z,14.10
2023-08-30T07:05:23.045Z,14.50
2023-08-30T07:07:50.045Z,12.60
2023-08-30T07:10:17.314Z,14.00
2023-08-30T07:12:44.576Z,13.70
2023-08-30T07:15:11.606Z,13.80
2023-08-30T07:17:52.127Z,14.10
2023-08-30T07:20:20.977Z,13.80
2023-08-30T07:22:47.881Z,14.00
2023-08-30T07:25:15.188Z,14.00
2023-08-30T07:27:42.290Z,14.60
2023-08-30T07:30:09.763Z,13.20
2023-08-30T07:32:37.557Z,14.10
2023-08-30T07:35:05.265Z,14.00
2023-08-30T07:37:32.385Z,14.10
2023-08-30T07:39:59.340Z,13.50
2023-08-30T07:42:26.283Z,15.30
2023-08-30T07:44:53.308Z,14.20
2023-08-30T07:47:20.392Z,14.60
2023-08-30T07:49:47.289Z,12.90
2023-08-30T07:52:14.412Z,14.20
2023-08-30T07:54:42.541Z,14.20
2023-08-30T07:57:09.641Z,14.20
2023-08-30T07:59:37.766Z,14.80
2023-08-30T08:02:08.315Z,14.50
2023-08-30T08:04:36.150Z,14.30
2023-08-30T08:07:04.822Z,14.40
2023-08-30T08:09:32.850Z,14.50
2023-08-30T08:11:59.782Z,14.50
2023-08-30T08:14:27.149Z,13.70
2023-08-30T08:16:54.301Z,15.00
2023-08-30T08:19:25.717Z,14.80
2023-08-30T08:21:54.714Z,14.60
2023-08-30T08:24:22.222Z,14.30
2023-08-30T08:26:49.353Z,15.40
2023-08-30T08:29:16.349Z,14.70
2023-08-30T08:31:43.482Z,13.50
2023-08-30T08:34:11.715Z,13.40
2023-08-30T08:36:43.316Z,14.70
2023-08-30T08:39:11.004Z,13.50
2023-08-30T08:41:42.965Z,15.30
2023-08-30T08:44:11.263Z,14.70
2023-08-30T08:46:40.103Z,14.40
2023-08-30T08:49:12.086Z,15.10
2023-08-30T08:51:39.915Z,15.30
2023-08-30T08:54:07.358Z,14.70
2023-08-30T08:56:35.196Z,14.80
2023-08-30T08:59:02.835Z,15.60
2023-08-30T09:01:36.075Z,14.80
2023-08-30T09:04:11.407Z,14.40
2023-08-30T09:06:44.357Z,15.00
2023-08-30T09:09:11.937Z,15.10
2023-08-30T09:14:10.570Z,15.20
2023-08-30T09:16:37.818Z,15.10
2023-08-30T09:21:35.818Z,15.30
2023-08-30T09:24:07.735Z,15.60
2023-08-30T09:26:38.644Z,15.20
2023-08-30T09:29:07.057Z,14.40
2023-08-30T09:31:43.157Z,15.20
2023-08-30T09:34:12.237Z,15.50
2023-08-30T09:36:41.825Z,15.70
2023-08-30T09:39:13.715Z,16.90
2023-08-30T09:41:45.895Z,15.40
2023-08-30T09:44:17.806Z,15.50
2023-08-30T09:46:52.526Z,15.70
2023-08-30T09:49:29.465Z,15.70
2023-08-30T09:51:57.690Z,15.80
2023-08-30T09:56:58.636Z,16.30
2023-08-30T09:59:29.163Z,16.60
2023-08-30T10:01:56.530Z,16.70
2023-08-30T10:04:25.691Z,16.70
2023-08-30T10:06:54.753Z,16.70
2023-08-30T10:09:22.744Z,16.80
2023-08-30T10:11:50.386Z,18.20
2023-08-30T10:14:18.136Z,17.10
2023-08-30T10:16:49.771Z,17.40
2023-08-30T10:19:24.523Z,18.20
2023-08-30T10:22:05.619Z,17.90
2023-08-30T10:24:48.275Z,16.00
2023-08-30T10:27:25.885Z,17.70
2023-08-30T10:29:53.464Z,17.80
2023-08-30T10:32:23.976Z,17.80
2023-08-30T10:34:52.059Z,18.00
2023-08-30T10:37:27.877Z,18.10
2023-08-30T10:40:00.280Z,18.00
2023-08-30T10:42:27.166Z,18.00
2023-08-30T10:45:13.197Z,18.00
2023-08-30T10:47:42.186Z,18.50
2023-08-30T10:50:14.016Z,19.10
2023-08-30T10:52:41.164Z,19.90
2023-08-30T10:55:14.152Z,19.90
2023-08-30T10:57:45.614Z,19.90
2023-08-30T11:00:20.510Z,19.70
2023-08-30T11:02:52.070Z,20.00
2023-08-30T11:05:24.801Z,20.10
2023-08-30T11:07:52.708Z,20.40
2023-08-30T11:10:20.916Z,20.30
2023-08-30T11:12:50.361Z,20.20
2023-08-30T11:15:17.581Z,20.90
2023-08-30T11:17:45.496Z,19.80
2023-08-30T11:20:21.439Z,19.90
2023-08-30T11:23:04.392Z,18.80
2023-08-30T11:25:31.520Z,20.60
2023-08-30T11:28:05.525Z,19.10
2023-08-30T11:30:32.432Z,19.50
2023-08-30T11:32:59.432Z,19.70
2023-08-30T11:35:27.380Z,19.80
2023-08-30T11:37:55.198Z,18.50
2023-08-30T11:40:22.202Z,20.30
2023-08-30T11:42:49.351Z,20.50
2023-08-30T11:45:16.321Z,20.50
2023-08-30T11:47:44.750Z,20.40
2023-08-30T11:50:13.419Z,20.10
2023-08-30T11:52:41.046Z,19.90
2023-08-30T11:55:08.476Z,19.70
2023-08-30T11:57:37.000Z,19.70
2023-08-30T12:00:13.801Z,20.40
2023-08-30T12:02:41.670Z,19.80
2023-08-30T12:05:13.309Z,19.90
2023-08-30T12:07:41.599Z,20.30
2023-08-30T12:10:10.223Z,20.70
2023-08-30T12:12:40.078Z,20.90
2023-08-30T12:15:11.224Z,20.80
2023-08-30T12:17:38.462Z,20.30
2023-08-30T12:20:05.798Z,21.40
2023-08-30T12:22:41.764Z,21.30
2023-08-30T12:25:22.194Z,22.50
2023-08-30T12:27:49.265Z,21.30
2023-08-30T12:30:17.377Z,21.80
2023-08-30T12:32:45.981Z,22.40
2023-08-30T12:35:12.941Z,22.60
2023-08-30T12:37:39.949Z,23.40
2023-08-30T12:40:07.651Z,22.90
2023-08-30T12:42:35.103Z,22.90
2023-08-30T12:45:02.203Z,22.90
2023-08-30T12:47:29.173Z,22.50
2023-08-30T12:49:57.094Z,21.10
2023-08-30T12:52:24.198Z,22.40
2023-08-30T12:54:53.214Z,22.60
2023-08-30T12:57:20.399Z,23.20
2023-08-30T12:59:48.062Z,23.90
2023-08-30T13:02:15.035Z,24.40
2023-08-30T13:04:42.061Z,24.30
2023-08-30T13:07:09.021Z,23.90
2023-08-30T13:09:35.858Z,23.60
2023-08-30T13:12:03.071Z,23.30
2023-08-30T13:14:30.025Z,22.90
2023-08-30T13:16:57.172Z,22.80
2023-08-30T13:19:24.444Z,22.80
2023-08-30T13:21:51.308Z,23.00
2023-08-30T13:24:18.288Z,23.10
2023-08-30T13:26:46.041Z,23.70
2023-08-30T13:29:13.160Z,24.50
2023-08-30T13:31:40.342Z,25.20
2023-08-30T13:34:07.529Z,25.50
2023-08-30T13:36:34.568Z,26.20
2023-08-30T13:39:01.570Z,27.90
2023-08-30T13:41:28.578Z,26.70
2023-08-30T13:43:57.954Z,26.40
2023-08-30T13:48:53.634Z,24.50
2023-08-30T13:51:23.582Z,25.30
2023-08-30T13:53:54.162Z,26.20
2023-08-30T13:58:48.743Z,24.50
2023-08-30T14:01:16.186Z,21.50
2023-08-30T14:11:05.337Z,19.90
2023-08-30T14:13:34.999Z,19.70
2023-08-30T14:16:05.304Z,19.40
2023-08-30T14:18:33.083Z,20.20
2023-08-30T14:21:00.916Z,20.10
2023-08-30T14:23:28.563Z,20.20
2023-08-30T14:26:11.496Z,20.30
2023-08-30T14:31:10.743Z,19.40
2023-08-30T14:33:39.156Z,19.00
2023-08-30T14:36:12.547Z,20.30
2023-08-30T14:43:35.221Z,22.30
2023-08-30T14:46:09.760Z,20.70
2023-08-30T14:51:06.980Z,20.20
2023-08-30T14:56:07.676Z,18.70
2023-08-30T14:58:36.509Z,19.70
2023-08-30T15:01:03.625Z,21.00
2023-08-30T15:03:30.643Z,18.80
2023-08-30T15:05:58.432Z,19.80
2023-08-30T15:08:25.724Z,19.80
2023-08-30T15:13:22.569Z,21.70
2023-08-30T15:15:49.674Z,19.50
2023-08-30T15:23:18.779Z,21.00
2023-08-30T15:25:49.696Z,21.00
2023-08-30T15:28:17.340Z,21.60
2023-08-30T15:30:49.793Z,21.30
2023-08-30T15:33:20.863Z,22.00
2023-08-30T15:50:34.604Z,21.50
2023-08-30T15:53:01.611Z,21.00
2023-08-30T16:00:24.623Z,23.30
2023-08-30T16:05:23.710Z,21.80
2023-08-30T16:15:14.264Z,22.30
2023-08-30T16:17:41.225Z,21.30
2023-08-30T16:20:09.503Z,21.70
2023-08-30T16:25:04.681Z,23.40
2023-08-30T16:30:01.415Z,23.60
2023-08-30T16:42:18.915Z,20.80
2023-08-30T16:44:46.287Z,21.10
2023-08-30T16:47:13.299Z,19.30
2023-08-30T17:07:00.372Z,21.00
2023-08-30T17:14:22.950Z,18.80
2023-08-30T17:21:45.078Z,18.50
2023-08-30T17:26:40.842Z,18.00
2023-08-30T17:56:23.396Z,19.40
2023-08-30T18:03:46.694Z,17.00
2023-08-30T18:08:45.754Z,19.20
2023-08-30T18:11:21.196Z,16.50
2023-08-30T18:13:48.833Z,18.90
2023-08-30T18:16:18.317Z,18.70
2023-08-30T18:24:04.010Z,17.50
2023-08-30T18:28:59.988Z,16.10
2023-08-30T18:33:55.448Z,15.90
2023-08-30T18:38:49.786Z,18.40
2023-08-30T18:43:50.165Z,17.00
2023-08-30T18:48:48.213Z,15.80
2023-08-30T18:51:15.476Z,18.10
2023-08-30T18:53:42.638Z,15.50
2023-08-30T19:03:32.333Z,15.70
2023-08-30T19:05:59.370Z,15.90
2023-08-30T19:25:39.387Z,16.30
2023-08-30T19:45:20.388Z,15.30
2023-08-30T19:52:50.269Z,16.00
2023-08-30T19:57:47.060Z,14.60
2023-08-30T20:00:14.967Z,15.50
2023-08-30T20:10:07.527Z,15.90
2023-08-30T20:49:27.268Z,13.80
2023-08-30T20:51:54.209Z,16.00
2023-08-30T21:01:44.220Z,16.20
2023-08-30T21:23:51.759Z,14.60
2023-08-30T21:26:19.612Z,13.30
2023-08-30T21:31:15.438Z,15.20
2023-08-30T21:36:12.247Z,13.90
2023-08-30T21:38:39.204Z,14.80
2023-08-30T21:43:34.552Z,13.60
2023-08-30T21:48:28.779Z,12.80
2023-08-30T21:58:18.859Z,12.60
2023-08-30T22:10:36.074Z,13.40
2023-08-30T22:13:05.446Z,13.60
2023-08-30T22:22:55.319Z,12.40
2023-08-30T22:30:17.754Z,12.30
2023-08-30T22:32:45.170Z,11.90
2023-08-30T22:35:13.132Z,11.90
2023-08-30T22:45:04.581Z,12.60
2023-08-30T22:49:58.979Z,12.70
2023-08-30T22:52:25.873Z,13.60
2023-08-30T22:57:20.190Z,14.30
2023-08-30T23:02:16.239Z,14.00
2023-08-30T23:12:08.270Z,12.70
2023-08-30T23:24:26.467Z,11.70
2023-08-30T23:34:23.119Z,12.00
2023-08-30T23:36:51.063Z,13.20
2023-08-30T23:39:18.034Z,11.50
2023-08-30T23:44:12.478Z,13.50
2023-08-30T23:46:39.392Z,11.80
2023-08-30T23:59:06.094Z,11.40
